Time;durP1;ratioP1;P1;durP2;ratioP2;P2;SDS_P1;SDS_P2;PMS_P1;PMS_P2;Temp;Humidity;BMP_temperature;BMP_pressure;BME280_temperature;BME280_humidity;BME280_pressure;Samples;Min_cycle;Max_cycle;Signal;HPM_P1;HPM_P2
2023/10/11 00:02:18;;;;;;;5.28;4.00;;;16.60;99.90;;;;;;5055657;28;20233;-63
2023/10/11 00:04:48;;;;;;;6.57;4.00;;;16.60;99.90;;;;;;5055591;28;20172;-64
2023/10/11 00:07:18;;;;;;;5.32;4.03;;;16.60;99.90;;;;;;5055513;28;20180;-63
2023/10/11 00:09:44;;;;;;;5.22;4.00;;;16.50;99.90;;;;;;5055694;28;20172;-63
2023/10/11 00:12:13;;;;;;;5.97;4.70;;;16.50;99.90;;;;;;5055643;28;20290;-64
2023/10/11 00:14:39;;;;;;;5.05;4.43;;;16.40;99.90;;;;;;5055371;28;20168;-64
2023/10/11 00:17:09;;;;;;;5.55;3.90;;;16.30;99.90;;;;;;5055418;28;20184;-64
2023/10/11 00:19:34;;;;;;;6.35;4.35;;;16.30;99.90;;;;;;5055049;28;20223;-64
2023/10/11 00:22:05;;;;;;;8.98;4.50;;;16.30;99.90;;;;;;5055095;28;20229;-64
2023/10/11 00:24:32;;;;;;;6.38;4.53;;;16.30;99.90;;;;;;5055421;28;20163;-63
2023/10/11 00:26:57;;;;;;;4.68;4.15;;;16.20;99.90;;;;;;5055299;28;20186;-64
2023/10/11 00:29:23;;;;;;;8.15;4.40;;;16.20;99.90;;;;;;5055114;28;20525;-64
2023/10/11 00:31:51;;;;;;;6.63;4.43;;;16.30;99.90;;;;;;5055166;28;20256;-65
2023/10/11 00:34:18;;;;;;;7.80;4.72;;;16.30;99.90;;;;;;5054767;28;20167;-63
2023/10/11 00:36:45;;;;;;;6.05;4.45;;;16.20;99.90;;;;;;5054894;28;20186;-64
2023/10/11 00:39:16;;;;;;;8.90;5.03;;;16.30;99.90;;;;;;5055082;28;20245;-64
2023/10/11 00:41:46;;;;;;;7.10;5.00;;;16.20;99.90;;;;;;5054878;28;20458;-63
2023/10/11 00:44:12;;;;;;;6.63;4.60;;;16.20;99.90;;;;;;5054866;28;20171;-64
2023/10/11 00:46:42;;;;;;;6.93;5.03;;;16.20;99.90;;;;;;5054777;28;20174;-64
2023/10/11 00:49:14;;;;;;;4.97;4.18;;;16.10;99.90;;;;;;5054657;28;20194;-63
2023/10/11 00:51:42;;;;;;;6.55;4.53;;;16.00;99.90;;;;;;5055054;28;20186;-63
2023/10/11 00:54:15;;;;;;;5.60;4.30;;;16.00;99.90;;;;;;5054673;28;20167;-63
2023/10/11 00:56:45;;;;;;;7.80;5.05;;;15.90;99.90;;;;;;5054725;28;20175;-64
2023/10/11 00:59:14;;;;;;;7.55;4.60;;;15.80;99.90;;;;;;5054514;28;20258;-63
2023/10/11 01:01:42;;;;;;;6.25;4.55;;;15.80;99.90;;;;;;5054371;28;20202;-63
2023/10/11 01:04:09;;;;;;;6.47;4.22;;;15.80;99.90;;;;;;5054649;28;20172;-63
2023/10/11 01:06:35;;;;;;;6.43;4.53;;;15.70;99.90;;;;;;5054514;28;20191;-64
2023/10/11 01:09:04;;;;;;;6.75;4.80;;;15.70;99.90;;;;;;5054466;28;20709;-63
2023/10/11 01:11:29;;;;;;;5.00;4.50;;;15.70;99.90;;;;;;5054386;28;20176;-63
2023/10/11 01:13:55;;;;;;;5.45;4.32;;;15.70;99.90;;;;;;5054258;28;20202;-64
2023/10/11 01:16:27;;;;;;;6.22;4.75;;;15.60;99.90;;;;;;5054228;28;20232;-63
2023/10/11 01:18:53;;;;;;;6.95;4.32;;;15.60;99.90;;;;;;5054367;28;20175;-63
2023/10/11 01:21:21;;;;;;;7.80;4.60;;;15.50;99.90;;;;;;5054117;28;20245;-63
2023/10/11 01:23:48;;;;;;;6.45;4.82;;;15.50;99.90;;;;;;5054399;28;20171;-64
2023/10/11 01:26:15;;;;;;;8.00;4.93;;;15.50;99.90;;;;;;5052916;28;20167;-64
2023/10/11 01:28:44;;;;;;;6.90;4.70;;;15.50;99.90;;;;;;5053888;28;20628;-63
2023/10/11 01:31:11;;;;;;;5.22;4.70;;;15.50;99.90;;;;;;5054065;28;20528;-64
2023/10/11 01:33:41;;;;;;;8.02;4.80;;;15.40;99.90;;;;;;5054022;28;20636;-64
2023/10/11 01:36:22;;;;;;;6.63;4.82;;;15.40;99.90;;;;;;5053942;28;20178;-63
2023/10/11 01:38:48;;;;;;;6.70;5.00;;;15.40;99.90;;;;;;5053906;28;20171;-65
2023/10/11 01:41:20;;;;;;;6.22;5.20;;;15.40;99.90;;;;;;5053603;28;20199;-63
2023/10/11 01:43:49;;;;;;;5.85;4.75;;;15.40;99.90;;;;;;5053993;28;20163;-63
2023/10/11 01:46:16;;;;;;;6.10;4.82;;;15.40;99.90;;;;;;5053296;28;20175;-63
2023/10/11 01:48:44;;;;;;;7.70;5.32;;;15.50;99.90;;;;;;5053692;28;20180;-63
2023/10/11 01:51:09;;;;;;;8.98;5.38;;;15.40;99.90;;;;;;5053682;28;20179;-63
2023/10/11 01:53:38;;;;;;;6.43;5.15;;;15.30;99.90;;;;;;5053542;28;20172;-63
2023/10/11 01:56:05;;;;;;;7.70;5.30;;;15.30;99.90;;;;;;5053541;28;20191;-63
2023/10/11 01:58:30;;;;;;;7.18;5.57;;;15.40;99.90;;;;;;5053434;28;20547;-63
2023/10/11 02:00:56;;;;;;;8.10;5.82;;;15.40;99.90;;;;;;5053522;28;20199;-63
2023/10/11 02:03:24;;;;;;;9.07;5.35;;;15.30;99.90;;;;;;5053523;28;20175;-63
2023/10/11 02:05:50;;;;;;;8.10;5.43;;;15.30;99.90;;;;;;5053351;28;20590;-64
2023/10/11 02:08:17;;;;;;;9.70;5.65;;;15.30;99.90;;;;;;5053326;28;20175;-63
2023/10/11 02:10:45;;;;;;;8.07;5.35;;;15.30;99.90;;;;;;5053504;28;20182;-63
2023/10/11 02:13:11;;;;;;;9.90;6.30;;;15.30;99.90;;;;;;5053412;28;20270;-63
2023/10/11 02:15:39;;;;;;;9.93;6.15;;;15.30;99.90;;;;;;5053319;28;20221;-63
2023/10/11 02:18:10;;;;;;;7.88;6.07;;;15.30;99.90;;;;;;5053243;28;20182;-63
2023/10/11 02:20:43;;;;;;;7.25;6.00;;;15.30;99.90;;;;;;5053345;28;20226;-63
2023/10/11 02:23:09;;;;;;;7.72;6.20;;;15.30;99.90;;;;;;5053056;28;20197;-63
2023/10/11 02:25:34;;;;;;;9.13;6.10;;;15.30;99.90;;;;;;5053292;28;20179;-63
2023/10/11 02:28:00;;;;;;;7.30;6.03;;;15.30;99.90;;;;;;5053208;28;20217;-63
2023/10/11 02:30:26;;;;;;;8.20;6.18;;;15.30;99.90;;;;;;5053194;28;20529;-63
2023/10/11 02:32:53;;;;;;;8.27;6.15;;;15.30;99.90;;;;;;5053134;28;20225;-63
2023/10/11 02:35:19;;;;;;;8.07;6.10;;;15.10;99.90;;;;;;5053029;28;20766;-63
2023/10/11 02:37:48;;;;;;;8.77;6.47;;;15.10;99.90;;;;;;5053252;28;20183;-63
2023/10/11 02:40:22;;;;;;;8.00;6.00;;;15.20;99.90;;;;;;5051965;28;20179;-61
2023/10/11 02:42:55;;;;;;;9.65;6.70;;;15.20;99.90;;;;;;5053075;28;20175;-63
2023/10/11 02:45:24;;;;;;;9.65;6.63;;;15.20;99.90;;;;;;5053066;28;20266;-63
2023/10/11 02:47:58;;;;;;;8.73;6.68;;;15.20;99.90;;;;;;5052924;28;20176;-63
2023/10/11 02:50:28;;;;;;;8.60;6.57;;;15.20;99.90;;;;;;5053125;28;20175;-63
2023/10/11 02:53:05;;;;;;;10.55;7.47;;;15.20;99.90;;;;;;5052895;28;20175;-63
2023/10/11 02:55:30;;;;;;;7.93;6.57;;;15.20;99.90;;;;;;5052946;28;20266;-63
2023/10/11 02:58:08;;;;;;;8.88;6.82;;;15.20;99.90;;;;;;5054484;28;20692;-63
2023/10/11 03:00:36;;;;;;;11.93;7.30;;;15.30;99.90;;;;;;5056705;28;20258;-63
2023/10/11 03:03:07;;;;;;;7.70;6.68;;;15.20;99.90;;;;;;5057119;28;20178;-61
2023/10/11 03:05:37;;;;;;;9.32;7.07;;;15.20;99.90;;;;;;5056886;28;20179;-63
2023/10/11 03:08:19;;;;;;;8.63;6.70;;;15.30;99.90;;;;;;5056702;28;20172;-62
2023/10/11 03:10:53;;;;;;;8.85;6.50;;;15.30;99.90;;;;;;5056688;28;20191;-63
2023/10/11 03:13:24;;;;;;;8.82;6.93;;;15.30;99.90;;;;;;5056901;28;20174;-63
2023/10/11 03:15:56;;;;;;;8.25;6.72;;;15.20;99.90;;;;;;5056711;28;20187;-64
2023/10/11 03:18:29;;;;;;;13.48;7.32;;;15.20;99.90;;;;;;5056598;28;20202;-63
2023/10/11 03:21:16;;;;;;;9.57;6.80;;;15.10;99.90;;;;;;5056078;28;20276;-63
2023/10/11 03:23:43;;;;;;;9.10;6.90;;;15.20;99.90;;;;;;5056556;28;20179;-63
2023/10/11 03:28:58;;;;;;;8.82;6.80;;;15.20;99.90;;;;;;5056435;28;20184;-64
2023/10/11 03:31:28;;;;;;;10.02;7.03;;;15.20;99.90;;;;;;5056262;28;20254;-64
2023/10/11 03:33:58;;;;;;;8.77;7.32;;;15.20;99.90;;;;;;5056162;28;20176;-63
2023/10/11 03:36:32;;;;;;;9.23;7.13;;;15.20;99.90;;;;;;5055096;28;20175;-63
2023/10/11 03:38:58;;;;;;;12.35;6.93;;;15.10;99.90;;;;;;5056276;28;20202;-63
2023/10/11 03:41:35;;;;;;;10.75;7.80;;;15.10;99.90;;;;;;5056035;28;20256;-63
2023/10/11 03:44:09;;;;;;;8.60;7.35;;;15.20;99.90;;;;;;5056105;28;20206;-63
2023/10/11 03:46:36;;;;;;;7.97;7.07;;;15.10;99.90;;;;;;5056267;28;20174;-63
2023/10/11 03:49:36;;;;;;;8.77;7.20;;;15.00;99.90;;;;;;5056071;28;20177;-63
2023/10/11 03:51:59;;;;;;;9.80;6.93;;;15.10;99.90;;;;;;5055713;28;20183;-63
2023/10/11 03:54:25;;;;;;;10.25;7.93;;;15.00;99.90;;;;;;5055889;28;20202;-63
2023/10/11 03:56:55;;;;;;;10.48;8.15;;;15.00;99.90;;;;;;5055645;28;20195;-63
2023/10/11 03:59:28;;;;;;;9.70;7.40;;;14.90;99.90;;;;;;5056086;28;20206;-63
2023/10/11 04:02:00;;;;;;;9.85;7.72;;;15.00;99.90;;;;;;5055649;28;20217;-63
2023/10/11 04:04:26;;;;;;;10.57;8.13;;;15.00;99.90;;;;;;5055690;28;20180;-63
2023/10/11 04:06:51;;;;;;;10.55;8.45;;;14.90;99.90;;;;;;5055604;28;20183;-62
2023/10/11 04:09:22;;;;;;;10.65;7.95;;;14.90;99.90;;;;;;5054861;28;20524;-62
2023/10/11 04:11:57;;;;;;;10.27;7.38;;;14.80;99.90;;;;;;5054429;28;20592;-63
2023/10/11 04:15:24;;;;;;;13.18;8.15;;;14.80;99.90;;;;;;5055589;28;20595;-63
2023/10/11 04:19:49;;;;;;;9.95;8.05;;;14.80;99.90;;;;;;5055256;28;20311;-63
2023/10/11 04:22:23;;;;;;;12.43;9.27;;;14.90;99.90;;;;;;5055340;28;20211;-62
2023/10/11 04:24:53;;;;;;;9.82;8.73;;;14.90;99.90;;;;;;5055410;28;20198;-63
2023/10/11 04:29:52;;;;;;;10.80;7.78;;;14.90;99.90;;;;;;5055195;28;20214;-63
2023/10/11 04:35:23;;;;;;;10.27;7.88;;;14.90;99.90;;;;;;5055049;28;20216;-63
2023/10/11 04:38:01;;;;;;;12.40;8.63;;;14.90;99.90;;;;;;5054047;28;20274;-63
2023/10/11 04:43:37;;;;;;;8.60;7.57;;;14.90;99.90;;;;;;5054390;28;20186;-62
2023/10/11 04:46:07;;;;;;;11.73;8.50;;;15.00;99.90;;;;;;5053465;28;20274;-62
2023/10/11 04:48:41;;;;;;;13.40;9.30;;;15.00;99.90;;;;;;5054973;28;20221;-62
2023/10/11 04:51:21;;;;;;;10.43;8.57;;;14.90;99.90;;;;;;5054624;28;20236;-63
2023/10/11 04:59:07;;;;;;;11.52;8.77;;;14.80;99.90;;;;;;5053491;28;20232;-62
2023/10/11 05:04:15;;;;;;;10.38;8.45;;;14.80;99.90;;;;;;5054246;28;20228;-64
2023/10/11 05:06:45;;;;;;;13.68;8.98;;;14.80;99.90;;;;;;5054476;28;20175;-64
2023/10/11 05:11:44;;;;;;;10.80;8.20;;;15.00;99.90;;;;;;5054372;28;20186;-64
2023/10/11 05:14:26;;;;;;;9.43;7.65;;;15.00;99.90;;;;;;5053090;28;20199;-65
2023/10/11 05:16:58;;;;;;;10.10;7.57;;;15.00;99.90;;;;;;5054105;28;20175;-64
2023/10/11 05:19:28;;;;;;;11.13;8.35;;;14.90;99.90;;;;;;5034096;28;20629;-64
2023/10/11 05:21:54;;;;;;;11.13;8.50;;;15.00;99.90;;;;;;5033126;28;20227;-62
2023/10/11 05:30:06;;;;;;;10.32;8.82;;;14.80;99.90;;;;;;5054101;28;20198;-65
2023/10/11 05:32:33;;;;;;;12.27;9.00;;;14.90;99.90;;;;;;5053888;28;20285;-65
2023/10/11 05:51:27;;;;;;;10.95;8.90;;;14.90;99.90;;;;;;5053878;28;20202;-64
2023/10/11 05:53:53;;;;;;;13.25;9.00;;;14.70;99.90;;;;;;5053835;28;20179;-62
2023/10/11 05:56:22;;;;;;;14.88;9.00;;;14.80;99.90;;;;;;5053700;28;20180;-65
2023/10/11 05:58:52;;;;;;;11.23;8.82;;;14.80;99.90;;;;;;5053612;28;20242;-65
2023/10/11 06:01:21;;;;;;;12.85;9.10;;;14.80;99.90;;;;;;5053498;28;20298;-65
2023/10/11 06:03:49;;;;;;;13.88;9.20;;;14.90;99.90;;;;;;5053454;28;20175;-64
2023/10/11 06:06:57;;;;;;;13.75;8.68;;;14.80;99.90;;;;;;5053331;28;20194;-64
2023/10/11 06:09:05;;;;;;;12.45;8.90;;;14.80;99.90;;;;;;5052790;28;20183;-64
2023/10/11 06:11:36;;;;;;;10.93;8.48;;;14.90;99.90;;;;;;5053463;28;20233;-65
2023/10/11 06:14:04;;;;;;;11.27;8.65;;;14.90;99.90;;;;;;5053258;28;20175;-65
2023/10/11 06:16:43;;;;;;;10.90;8.98;;;14.90;99.90;;;;;;5053138;28;20632;-65
2023/10/11 06:19:18;;;;;;;10.73;8.77;;;15.00;99.90;;;;;;5053172;28;20181;-65
2023/10/11 06:22:31;;;;;;;9.52;8.52;;;15.00;99.90;;;;;;5053419;28;20203;-65
2023/10/11 06:24:37;;;;;;;10.50;8.63;;;15.00;99.90;;;;;;5052630;28;20632;-65
2023/10/11 06:29:37;;;;;;;11.13;7.60;;;15.00;99.90;;;;;;5053385;28;20233;-65
2023/10/11 06:32:11;;;;;;;10.38;8.43;;;15.10;99.90;;;;;;5052932;28;20245;-66
2023/10/11 06:34:38;;;;;;;9.77;8.55;;;15.10;99.90;;;;;;5053213;28;20249;-65
2023/10/11 06:37:06;;;;;;;11.13;8.10;;;15.10;99.90;;;;;;5053094;28;20167;-65
2023/10/11 06:42:18;;;;;;;11.55;8.52;;;15.10;99.90;;;;;;5052847;28;20242;-65
2023/10/11 06:44:48;;;;;;;12.10;9.23;;;15.10;99.90;;;;;;5053015;28;20698;-65
2023/10/11 06:47:19;;;;;;;11.70;8.68;;;15.20;99.90;;;;;;5053092;28;20171;-65
2023/10/11 06:49:49;;;;;;;10.68;7.82;;;15.40;99.90;;;;;;5052834;28;20183;-65
2023/10/11 06:52:17;;;;;;;10.93;8.57;;;15.50;99.90;;;;;;5053056;28;20172;-65
2023/10/11 06:54:51;;;;;;;10.85;8.38;;;15.50;99.90;;;;;;5053125;28;20195;-65
2023/10/11 06:57:21;;;;;;;12.90;8.38;;;15.60;99.90;;;;;;5053094;28;20217;-66
2023/10/11 06:59:50;;;;;;;9.05;7.68;;;15.60;99.90;;;;;;5052796;28;20182;-66
2023/10/11 07:02:31;;;;;;;9.82;7.50;;;15.70;99.90;;;;;;5052672;28;20211;-65
2023/10/11 07:05:05;;;;;;;9.20;8.30;;;15.80;99.90;;;;;;5052831;28;20206;-66
2023/10/11 07:07:34;;;;;;;9.73;7.53;;;15.80;99.90;;;;;;5052811;28;20172;-66
2023/10/11 07:10:28;;;;;;;13.68;8.48;;;15.90;99.90;;;;;;5052870;28;20266;-66
2023/10/11 07:13:04;;;;;;;9.38;7.70;;;16.00;99.90;;;;;;5052527;28;20525;-64
2023/10/11 07:15:51;;;;;;;11.25;8.07;;;16.00;99.90;;;;;;5052997;28;20255;-65
2023/10/11 07:18:27;;;;;;;8.93;7.72;;;15.90;99.90;;;;;;5052819;28;20175;-67
2023/10/11 07:21:48;;;;;;;8.68;6.97;;;15.90;99.90;;;;;;5052988;28;20323;-66
2023/10/11 07:23:55;;;;;;;9.07;7.45;;;16.00;99.90;;;;;;5052310;28;20195;-66
2023/10/11 07:28:51;;;;;;;9.70;7.78;;;16.00;99.90;;;;;;5052654;28;20179;-66
2023/10/11 07:31:18;;;;;;;9.73;7.65;;;16.10;99.90;;;;;;5052710;28;20225;-66
2023/10/11 07:33:55;;;;;;;11.65;8.90;;;16.10;99.90;;;;;;5052433;28;20173;-64
2023/10/11 07:36:22;;;;;;;12.00;8.00;;;16.20;99.90;;;;;;5052743;28;20207;-63
2023/10/11 07:38:58;;;;;;;12.55;8.73;;;16.30;99.90;;;;;;5052543;28;20271;-66
2023/10/11 07:41:28;;;;;;;13.02;8.57;;;16.30;99.90;;;;;;5052499;28;20211;-67
2023/10/11 07:44:01;;;;;;;12.13;8.90;;;16.30;99.90;;;;;;5052401;28;20171;-66
2023/10/11 07:46:30;;;;;;;12.98;8.90;;;16.40;99.90;;;;;;5056044;28;20179;-66
2023/10/11 07:49:01;;;;;;;11.93;9.35;;;16.40;99.90;;;;;;5056062;28;20163;-66
2023/10/11 07:51:34;;;;;;;21.20;10.75;;;16.50;99.90;;;;;;5056132;28;20183;-65
2023/10/11 07:54:06;;;;;;;13.55;9.30;;;16.50;99.90;;;;;;5055974;28;20267;-66
2023/10/11 07:56:38;;;;;;;16.60;10.32;;;16.50;99.90;;;;;;5055830;28;20175;-66
2023/10/11 07:59:12;;;;;;;13.68;9.95;;;16.50;99.90;;;;;;5055984;28;20178;-66
2023/10/11 08:01:44;;;;;;;13.50;9.93;;;16.60;99.90;;;;;;5055806;28;20610;-65
2023/10/11 08:04:17;;;;;;;14.07;10.15;;;16.60;99.90;;;;;;5055701;28;20218;-66
2023/10/11 08:06:44;;;;;;;14.80;10.27;;;16.60;99.90;;;;;;5055689;28;20171;-66
2023/10/11 08:09:18;;;;;;;15.98;10.85;;;16.60;99.90;;;;;;5054304;28;20185;-66
2023/10/11 08:11:56;;;;;;;15.32;11.15;;;16.60;99.90;;;;;;5055662;28;20735;-66
2023/10/11 08:14:28;;;;;;;14.73;11.02;;;16.60;99.90;;;;;;5055549;28;20206;-66
2023/10/11 08:16:59;;;;;;;17.95;13.07;;;16.70;99.90;;;;;;5055461;28;20186;-65
2023/10/11 08:19:25;;;;;;;19.80;12.38;;;16.80;99.90;;;;;;5055188;28;20175;-65
2023/10/11 08:21:57;;;;;;;18.70;12.38;;;16.90;99.90;;;;;;5055278;28;20252;-68
2023/10/11 08:24:25;;;;;;;20.70;13.02;;;16.70;99.90;;;;;;5055249;28;20608;-66
2023/10/11 08:27:05;;;;;;;16.60;13.80;;;16.80;99.90;;;;;;5055395;28;20204;-66
2023/10/11 08:29:32;;;;;;;20.83;13.93;;;16.80;99.90;;;;;;5055262;28;20323;-67
2023/10/11 08:31:59;;;;;;;19.50;15.05;;;17.00;99.90;;;;;;5055107;28;20177;-66
2023/10/11 08:34:26;;;;;;;17.73;14.00;;;17.00;99.90;;;;;;5055037;28;20172;-66
2023/10/11 08:36:55;;;;;;;21.15;14.10;;;17.00;99.90;;;;;;5054964;28;20580;-66
2023/10/11 08:42:16;;;;;;;20.27;14.65;;;17.10;99.90;;;;;;5054960;28;20219;-66
2023/10/11 08:44:46;;;;;;;19.40;14.38;;;17.10;99.90;;;;;;5054864;28;20184;-65
2023/10/11 08:47:13;;;;;;;20.83;14.30;;;17.20;99.90;;;;;;5055109;28;20171;-66
2023/10/11 08:49:50;;;;;;;19.95;14.45;;;17.20;99.90;;;;;;5054927;28;20175;-65
2023/10/11 08:52:28;;;;;;;19.35;15.15;;;17.20;99.90;;;;;;5055049;28;20175;-65
2023/10/11 08:54:53;;;;;;;21.08;15.52;;;17.20;99.90;;;;;;5054656;28;20261;-65
2023/10/11 08:57:25;;;;;;;23.88;15.52;;;17.30;99.90;;;;;;5054514;28;20259;-66
2023/10/11 08:59:57;;;;;;;20.77;14.88;;;17.30;99.90;;;;;;5054745;28;20183;-66
2023/10/11 09:02:26;;;;;;;20.20;16.42;;;17.30;99.90;;;;;;5054656;28;20211;-66
2023/10/11 09:05:06;;;;;;;26.25;16.75;;;17.40;99.90;;;;;;5054705;28;20511;-66
2023/10/11 09:07:37;;;;;;;23.17;14.88;;;17.50;99.90;;;;;;5054452;28;20175;-66
2023/10/11 09:10:27;;;;;;;20.25;15.27;;;17.40;99.90;;;;;;5053355;28;20179;-65
2023/10/11 09:12:57;;;;;;;21.90;15.18;;;17.40;99.90;;;;;;5054548;28;20186;-66
2023/10/11 09:15:42;;;;;;;20.77;15.43;;;17.40;99.90;;;;;;5054395;28;20183;-66
2023/10/11 09:18:16;;;;;;;22.45;15.63;;;17.50;99.90;;;;;;5054239;28;20262;-66
2023/10/11 09:21:09;;;;;;;24.80;15.55;;;17.50;99.90;;;;;;5053957;28;20223;-66
2023/10/11 09:23:39;;;;;;;22.13;15.00;;;17.60;99.90;;;;;;5054355;28;20190;-66
2023/10/11 09:26:08;;;;;;;20.10;14.18;;;17.50;99.90;;;;;;5054294;28;20229;-65
2023/10/11 09:28:40;;;;;;;21.60;15.25;;;17.40;99.90;;;;;;5053975;28;20167;-65
2023/10/11 09:31:19;;;;;;;22.10;15.73;;;17.50;99.90;;;;;;5054301;28;20206;-65
2023/10/11 09:33:50;;;;;;;22.17;15.60;;;17.50;99.90;;;;;;5054224;28;20179;-66
2023/10/11 09:36:19;;;;;;;24.60;16.10;;;17.50;99.90;;;;;;5053953;28;20178;-66
2023/10/11 09:38:54;;;;;;;27.08;16.52;;;17.60;99.90;;;;;;5053776;28;20176;-65
2023/10/11 09:41:38;;;;;;;23.95;16.48;;;17.60;99.90;;;;;;5054029;28;20591;-66
2023/10/11 09:44:05;;;;;;;23.17;15.73;;;17.50;99.90;;;;;;5053908;28;20194;-68
2023/10/11 09:46:33;;;;;;;24.85;17.30;;;17.60;99.90;;;;;;5053851;28;20171;-66
2023/10/11 09:49:02;;;;;;;22.27;15.15;;;17.70;99.90;;;;;;5053737;28;20179;-66
2023/10/11 09:51:30;;;;;;;25.23;14.90;;;17.70;99.90;;;;;;5053368;28;20232;-67
2023/10/11 09:54:06;;;;;;;22.48;15.77;;;17.80;99.90;;;;;;5053744;28;20175;-66
2023/10/11 09:56:53;;;;;;;22.50;14.40;;;17.90;99.90;;;;;;5053107;28;20182;-65
2023/10/11 09:59:39;;;;;;;22.45;14.43;;;17.90;99.90;;;;;;5053953;28;20624;-67
2023/10/11 10:02:19;;;;;;;27.35;15.88;;;17.90;99.90;;;;;;5052875;28;20203;-66
2023/10/11 10:04:54;;;;;;;29.17;16.10;;;18.00;99.90;;;;;;5053440;28;20497;-66
2023/10/11 10:07:22;;;;;;;21.95;15.38;;;18.00;99.90;;;;;;5053228;28;20517;-66
2023/10/11 10:09:52;;;;;;;27.08;16.25;;;18.00;99.90;;;;;;5053475;28;20182;-67
2023/10/11 10:12:22;;;;;;;18.50;14.30;;;18.10;99.90;;;;;;5053405;28;20194;-66
2023/10/11 10:15:02;;;;;;;25.95;16.20;;;18.10;99.90;;;;;;5053368;28;20636;-66
2023/10/11 10:17:28;;;;;;;24.50;14.50;;;18.20;99.90;;;;;;5053607;28;20174;-66
2023/10/11 10:20:00;;;;;;;25.27;14.98;;;18.20;99.90;;;;;;5052977;28;20680;-66
2023/10/11 10:22:31;;;;;;;22.73;15.38;;;18.20;99.90;;;;;;5053354;28;20206;-66
2023/10/11 10:25:18;;;;;;;22.65;15.68;;;18.30;99.90;;;;;;5053234;28;20170;-67
2023/10/11 10:27:52;;;;;;;24.65;15.13;;;18.30;99.90;;;;;;5053569;28;20274;-66
2023/10/11 10:30:21;;;;;;;23.38;14.95;;;18.20;99.90;;;;;;5053338;28;20183;-67
2023/10/11 10:33:19;;;;;;;18.90;13.80;;;18.30;99.90;;;;;;5053185;28;20230;-67
2023/10/11 10:35:45;;;;;;;23.10;14.68;;;18.30;99.90;;;;;;5053319;28;20167;-66
2023/10/11 10:38:10;;;;;;;21.90;13.95;;;18.40;99.90;;;;;;5053232;28;20175;-66
2023/10/11 10:40:45;;;;;;;22.50;14.50;;;18.40;99.90;;;;;;5053138;28;20170;-65
2023/10/11 10:43:23;;;;;;;23.83;14.80;;;18.40;99.90;;;;;;5053202;28;20166;-67
2023/10/11 10:45:59;;;;;;;22.30;14.93;;;18.40;99.90;;;;;;5053054;28;20635;-66
2023/10/11 10:48:25;;;;;;;26.30;14.55;;;18.60;99.90;;;;;;5053254;28;20179;-66
2023/10/11 10:51:04;;;;;;;23.95;15.23;;;18.60;99.90;;;;;;5053123;28;20201;-66
2023/10/11 10:53:38;;;;;;;20.92;14.77;;;18.70;99.90;;;;;;5053003;28;20173;-67
2023/10/11 10:56:04;;;;;;;20.95;14.80;;;18.70;99.90;;;;;;5052796;28;20198;-67
2023/10/11 10:58:30;;;;;;;23.30;14.20;;;18.70;99.90;;;;;;5053206;28;20199;-67
2023/10/11 11:00:59;;;;;;;23.10;14.27;;;18.80;99.90;;;;;;5053003;28;20277;-67
2023/10/11 11:03:31;;;;;;;23.38;14.90;;;18.80;99.90;;;;;;5052938;28;20294;-66
2023/10/11 11:05:59;;;;;;;21.52;13.30;;;18.90;99.90;;;;;;5052897;28;20170;-66
2023/10/11 11:08:29;;;;;;;18.65;14.48;;;19.00;99.90;;;;;;5052781;28;20563;-66
2023/10/11 11:11:25;;;;;;;25.23;14.55;;;19.10;99.90;;;;;;5053079;28;20631;-66
2023/10/11 11:13:52;;;;;;;21.80;15.10;;;19.20;99.90;;;;;;5052929;28;20270;-66
2023/10/11 11:16:20;;;;;;;23.48;14.95;;;19.30;99.90;;;;;;5052580;28;20243;-67
2023/10/11 11:18:47;;;;;;;22.92;15.13;;;19.20;99.90;;;;;;5052507;28;20535;-67
2023/10/11 11:21:25;;;;;;;22.45;15.15;;;19.30;99.90;;;;;;5055112;28;20239;-67
2023/10/11 11:23:52;;;;;;;20.17;13.65;;;19.30;99.90;;;;;;5056850;28;20175;-65
2023/10/11 11:26:22;;;;;;;21.13;15.05;;;19.40;99.90;;;;;;5056502;28;20261;-67
2023/10/11 11:29:08;;;;;;;20.10;15.40;;;19.40;99.90;;;;;;5056353;28;20555;-67
2023/10/11 11:31:53;;;;;;;22.23;15.15;;;19.40;99.90;;;;;;5056062;28;20182;-67
2023/10/11 11:37:20;;;;;;;20.05;14.38;;;19.60;99.90;;;;;;5055321;28;20227;-66
2023/10/11 11:39:52;;;;;;;21.42;15.27;;;19.80;99.90;;;;;;5056240;28;20178;-67
2023/10/11 11:42:19;;;;;;;22.05;14.02;;;19.80;99.90;;;;;;5054534;28;20340;-66
2023/10/11 11:44:46;;;;;;;22.15;14.65;;;19.80;99.90;;;;;;5055964;28;20175;-66
2023/10/11 11:47:13;;;;;;;20.75;15.10;;;19.80;99.90;;;;;;5056046;28;20262;-67
2023/10/11 11:49:38;;;;;;;18.65;14.10;;;19.90;99.90;;;;;;5055133;28;20702;-67
2023/10/11 11:52:04;;;;;;;21.83;14.50;;;20.00;99.90;;;;;;5055010;28;20180;-66
2023/10/11 11:54:30;;;;;;;19.13;13.73;;;19.90;99.90;;;;;;5055560;28;20179;-67
2023/10/11 11:56:57;;;;;;;28.00;15.70;;;19.90;99.90;;;;;;5055586;28;20258;-67
2023/10/11 11:59:24;;;;;;;20.67;14.57;;;19.90;99.90;;;;;;5054717;28;20264;-67
2023/10/11 12:01:53;;;;;;;21.83;14.60;;;20.10;99.90;;;;;;5055737;28;20549;-67
2023/10/11 12:04:29;;;;;;;20.48;14.35;;;20.10;99.90;;;;;;5055735;28;20171;-67
2023/10/11 12:07:02;;;;;;;23.30;15.23;;;20.10;99.90;;;;;;5055429;28;20185;-67
2023/10/11 12:09:34;;;;;;;23.50;14.70;;;20.00;99.90;;;;;;5055803;28;20258;-67
2023/10/11 12:12:08;;;;;;;23.25;14.13;;;19.90;99.90;;;;;;5055552;28;20183;-66
2023/10/11 12:14:37;;;;;;;20.45;14.45;;;19.90;99.90;;;;;;5055469;28;20199;-66
2023/10/11 12:17:09;;;;;;;18.52;13.77;;;19.80;99.90;;;;;;5055326;28;20651;-66
2023/10/11 12:19:42;;;;;;;24.92;14.48;;;19.90;99.90;;;;;;5054969;28;20258;-66
2023/10/11 12:22:13;;;;;;;20.98;12.88;;;19.80;99.90;;;;;;5055467;28;20211;-67
2023/10/11 12:24:44;;;;;;;25.00;13.40;;;19.90;99.90;;;;;;5055464;28;20179;-66
2023/10/11 12:27:11;;;;;;;20.17;12.80;;;20.00;99.90;;;;;;5055683;28;20175;-67
2023/10/11 12:29:37;;;;;;;20.13;14.20;;;20.20;99.90;;;;;;5055243;28;20203;-67
2023/10/11 12:32:04;;;;;;;25.10;13.60;;;20.20;99.90;;;;;;5054676;28;20177;-67
2023/10/11 12:34:31;;;;;;;20.52;13.50;;;20.30;99.90;;;;;;5055300;28;20179;-67
2023/10/11 12:36:57;;;;;;;20.95;13.75;;;20.20;99.90;;;;;;5055284;28;20225;-67
2023/10/11 12:39:25;;;;;;;27.17;14.88;;;20.10;99.90;;;;;;5054972;28;20240;-67
2023/10/11 12:41:52;;;;;;;21.92;14.43;;;20.10;99.90;;;;;;5054942;28;20656;-67
2023/10/11 12:44:18;;;;;;;20.42;14.13;;;20.00;99.90;;;;;;5054688;28;20644;-67
2023/10/11 12:46:45;;;;;;;18.48;13.40;;;20.00;99.90;;;;;;5054430;28;20183;-67
2023/10/11 12:49:13;;;;;;;23.05;15.10;;;20.00;99.90;;;;;;5055317;28;20225;-66
2023/10/11 12:51:46;;;;;;;22.70;14.38;;;20.00;99.90;;;;;;5054748;28;20179;-66
2023/10/11 12:54:13;;;;;;;19.73;14.00;;;20.10;99.90;;;;;;5054866;28;20645;-66
2023/10/11 12:56:39;;;;;;;19.95;15.07;;;20.00;99.90;;;;;;5054709;28;20167;-66
2023/10/11 12:59:12;;;;;;;20.25;14.73;;;20.10;99.90;;;;;;5054567;28;20186;-68
2023/10/11 13:01:52;;;;;;;19.67;13.65;;;20.20;99.90;;;;;;5054773;28;20245;-67
2023/10/11 13:04:23;;;;;;;23.30;14.40;;;20.20;99.90;;;;;;5054699;28;20293;-67
2023/10/11 13:06:50;;;;;;;19.85;14.30;;;20.10;99.90;;;;;;5054640;28;20179;-67
2023/10/11 13:09:21;;;;;;;20.00;14.23;;;20.20;99.90;;;;;;5054289;28;20733;-67
2023/10/11 13:11:47;;;;;;;19.48;13.48;;;20.20;99.90;;;;;;5054635;28;20202;-67
2023/10/11 13:14:20;;;;;;;18.63;13.43;;;20.20;99.90;;;;;;5054619;28;20266;-67
2023/10/11 13:16:48;;;;;;;14.77;11.43;;;20.30;99.90;;;;;;5054381;28;20268;-67
2023/10/11 13:19:18;;;;;;;20.05;12.27;;;20.40;99.90;;;;;;5054087;28;20541;-66
2023/10/11 13:21:47;;;;;;;16.13;11.77;;;20.40;99.90;;;;;;5054214;28;20207;-67
2023/10/11 13:24:16;;;;;;;19.35;11.30;;;20.40;99.90;;;;;;5054368;28;20177;-66
2023/10/11 13:26:46;;;;;;;15.18;10.85;;;20.60;99.90;;;;;;5054452;28;20179;-66
2023/10/11 13:29:18;;;;;;;17.90;10.90;;;20.60;99.90;;;;;;5054239;28;20183;-66
2023/10/11 13:31:48;;;;;;;15.27;9.57;;;20.50;99.90;;;;;;5054172;28;20190;-67
2023/10/11 13:34:17;;;;;;;16.45;9.35;;;20.60;99.90;;;;;;5054095;28;20167;-67
2023/10/11 13:36:43;;;;;;;12.73;8.75;;;20.50;99.90;;;;;;5053902;28;20524;-66
2023/10/11 13:39:25;;;;;;;16.92;9.35;;;20.50;99.90;;;;;;5054013;28;20233;-67
2023/10/11 13:41:52;;;;;;;17.92;9.75;;;20.60;99.90;;;;;;5053228;28;20215;-66
2023/10/11 13:44:19;;;;;;;16.42;9.50;;;20.60;99.90;;;;;;5053691;28;20701;-66
2023/10/11 13:46:51;;;;;;;12.13;8.23;;;20.50;99.90;;;;;;5052660;28;20179;-67
2023/10/11 13:49:39;;;;;;;17.25;8.25;;;20.40;99.90;;;;;;5053622;28;20210;-67
2023/10/11 13:52:06;;;;;;;12.27;7.68;;;20.40;99.90;;;;;;5051198;28;20531;-66
2023/10/11 13:54:45;;;;;;;12.02;7.50;;;20.30;99.90;;;;;;5052729;28;20186;-67
2023/10/11 13:57:18;;;;;;;13.55;7.95;;;20.40;99.90;;;;;;5053617;28;20229;-66